Список аэропортов
Фактическая погода:

26 апреля, 12:00
Температура: +6°C (+2.6*)
Ветер: западный 5 м/с
Давление: *763 мм
разорв. обл.
1440 м
Время (МСК)Темп. СВетерВлажностьДавлениеОблачностьОсадки
09:00+5З, 3 м/с56%1019 гПас прояснениями
10:00+5З, 3 м/с53%1019 гПаоблачно
11:00+6З, 3 м/с52%1018 гПаоблачно
12:00+6З, 3 м/с48%1018 гПаоблачно
13:00+7ЮЗ, 3 м/с44%1018 гПаоблачно
14:00+8ЮЗ, 3 м/с43%1017 гПаоблачно
15:00+8ЮЗ, 3 м/с41%1016 гПас прояснениями
16:00+8ЮЗ, 3 м/с41%1015 гПамалооблачно
17:00+8Ю, 3 м/с44%1015 гПамалооблачно
18:00+5Ю, 2 м/с57%1015 гПаясно
19:00+2ЮВ, 2 м/с70%1016 гПаясно
20:00+1ЮВ, 2 м/с78%1016 гПаясно
21:00-1ЮВ, 2 м/с84%1016 гПаясно
22:00-2ЮВ, 2 м/с88%1016 гПаясно
23:00-2ЮВ, 2 м/с89%1015 гПаясно
27 апреля
00:00-3ЮВ, 2 м/с90%1015 гПаясно
01:00-4ЮВ, 2 м/с90%1014 гПаясно
02:00-4ЮВ, 2 м/с89%1013 гПаясно
03:00-4ЮВ, 3 м/с88%1013 гПаясно
04:00-4ЮВ, 3 м/с86%1012 гПаоблачно
05:00-2ЮВ, 3 м/с80%1011 гПамалооблачно
06:00-0ЮВ, 3 м/с71%1010 гПас прояснениями
07:00+4ЮВ, 5 м/с57%1009 гПаоблачно
08:00+6ЮВ, 5 м/с52%1008 гПаоблачносл. дождь
09:00+6ЮВ, 5 м/с69%1007 гПаоблачнодождь
10:00+6ЮВ, 6 м/с75%1007 гПаоблачнодождь
11:00+7ЮВ, 6 м/с80%1006 гПаоблачнодождь
12:00+7ЮВ, 6 м/с80%1006 гПаоблачносл. дождь
13:00+7ЮВ, 5 м/с82%1006 гПаоблачносл. дождь
14:00+7ЮВ, 6 м/с80%1007 гПаоблачнодождь
15:00+7ЮВ, 5 м/с79%1007 гПаоблачнодождь
16:00+7ЮВ, 4 м/с83%1008 гПаоблачнодождь
17:00+6Ю, 3 м/с92%1009 гПаоблачносл. дождь
18:00+6Ю, 3 м/с97%1009 гПаоблачносл. дождь
19:00+5Ю, 3 м/с98%1009 гПаоблачносл. дождь
20:00+5Ю, 3 м/с98%1010 гПаоблачносл. дождь
21:00+5ЮЗ, 3 м/с98%1011 гПаоблачно
22:00+5ЮЗ, 2 м/с98%1011 гПаоблачносл. дождь
23:00+4ЮЗ, 3 м/с98%1012 гПаоблачносл. дождь
28 апреля
00:00+5ЮЗ, 3 м/с98%1012 гПаоблачносл. дождь
01:00+5З, 3 м/с98%1012 гПаоблачносл. дождь
02:00+4ЮЗ, 2 м/с99%1012 гПас прояснениями
03:00+3Ю, 2 м/с99%1012 гПас прояснениями
04:00+4ЮЗ, 4 м/с97%1013 гПаоблачно
05:00+4ЮЗ, 3 м/с95%1013 гПаоблачно
06:00+4ЮЗ, 4 м/с94%1013 гПаоблачно
07:00+6ЮЗ, 4 м/с90%1013 гПаоблачносл. дождь
08:00+7ЮЗ, 5 м/с81%1012 гПаоблачно
09:00+9ЮЗ, 5 м/с71%1012 гПаоблачно